sensor_id;sensor_type;location;lat;lon;timestamp;pressure;altitude;pressure_sealevel;temperature;humidity
7264;BME280;3673;52.480;13.348;2023-04-07T00:00:25;101534.59;;;12.25;32.93
7264;BME280;3673;52.480;13.348;2023-04-07T00:02:53;101539.78;;;12.14;33.54
7264;BME280;3673;52.480;13.348;2023-04-07T00:05:20;101534.53;;;12.14;33.29
7264;BME280;3673;52.480;13.348;2023-04-07T00:07:47;101536.31;;;12.14;33.23
7264;BME280;3673;52.480;13.348;2023-04-07T00:10:13;101533.66;;;12.15;33.07
7264;BME280;3673;52.480;13.348;2023-04-07T00:12:40;101535.25;;;11.87;33.69
7264;BME280;3673;52.480;13.348;2023-04-07T00:15:08;101538.53;;;11.61;34.33
7264;BME280;3673;52.480;13.348;2023-04-07T00:17:35;101523.59;;;11.52;34.50
7264;BME280;3673;52.480;13.348;2023-04-07T00:20:05;101535.84;;;11.55;34.37
7264;BME280;3673;52.480;13.348;2023-04-07T00:22:32;101530.78;;;11.71;34.53
7264;BME280;3673;52.480;13.348;2023-04-07T00:24:59;101531.66;;;11.75;34.19
7264;BME280;3673;52.480;13.348;2023-04-07T00:27:26;101534.44;;;11.96;33.80
7264;BME280;3673;52.480;13.348;2023-04-07T00:29:52;101531.78;;;11.95;33.74
7264;BME280;3673;52.480;13.348;2023-04-07T00:32:20;101526.56;;;11.98;33.48
7264;BME280;3673;52.480;13.348;2023-04-07T00:34:47;101533.59;;;12.00;33.22
7264;BME280;3673;52.480;13.348;2023-04-07T00:37:16;101526.66;;;12.07;33.43
7264;BME280;3673;52.480;13.348;2023-04-07T00:39:44;101530.06;;;11.98;33.20
7264;BME280;3673;52.480;13.348;2023-04-07T00:42:11;101526.53;;;11.87;33.67
7264;BME280;3673;52.480;13.348;2023-04-07T00:44:38;101529.13;;;11.84;33.36
7264;BME280;3673;52.480;13.348;2023-04-07T00:47:05;101522.09;;;11.80;33.27
7264;BME280;3673;52.480;13.348;2023-04-07T00:49:32;101519.50;;;11.83;33.49
7264;BME280;3673;52.480;13.348;2023-04-07T00:51:58;101522.16;;;11.89;33.15
7264;BME280;3673;52.480;13.348;2023-04-07T00:54:27;101519.47;;;11.80;33.08
7264;BME280;3673;52.480;13.348;2023-04-07T00:56:55;101508.97;;;11.75;32.57
7264;BME280;3673;52.480;13.348;2023-04-07T00:59:23;101508.13;;;11.82;32.27
7264;BME280;3673;52.480;13.348;2023-04-07T01:01:56;101506.44;;;11.89;31.90
7264;BME280;3673;52.480;13.348;2023-04-07T01:04:29;101503.78;;;11.86;31.95
7264;BME280;3673;52.480;13.348;2023-04-07T01:07:04;101506.34;;;11.78;31.90
7264;BME280;3673;52.480;13.348;2023-04-07T01:09:39;101508.09;;;11.76;32.25
7264;BME280;3673;52.480;13.348;2023-04-07T01:12:14;101492.34;;;11.70;32.41
7264;BME280;3673;52.480;13.348;2023-04-07T01:14:49;101503.59;;;11.62;32.08
7264;BME280;3673;52.480;13.348;2023-04-07T01:17:18;101499.31;;;11.74;32.17
7264;BME280;3673;52.480;13.348;2023-04-07T01:19:51;101506.34;;;11.74;32.03
7264;BME280;3673;52.480;13.348;2023-04-07T01:22:25;101493.16;;;11.69;32.12
7264;BME280;3673;52.480;13.348;2023-04-07T01:25:17;101497.50;;;11.66;31.97
7264;BME280;3673;52.480;13.348;2023-04-07T01:28:00;101485.22;;;11.59;32.34
7264;BME280;3673;52.480;13.348;2023-04-07T01:30:37;101484.47;;;11.72;32.00
7264;BME280;3673;52.480;13.348;2023-04-07T01:33:06;101491.50;;;11.76;32.16
7264;BME280;3673;52.480;13.348;2023-04-07T01:35:34;101486.22;;;11.73;32.38
7264;BME280;3673;52.480;13.348;2023-04-07T01:38:03;101486.09;;;11.59;32.57
7264;BME280;3673;52.480;13.348;2023-04-07T01:40:32;101491.31;;;11.53;32.50
7264;BME280;3673;52.480;13.348;2023-04-07T01:43:00;101482.59;;;11.57;32.32
7264;BME280;3673;52.480;13.348;2023-04-07T01:45:28;101485.22;;;11.59;32.63
7264;BME280;3673;52.480;13.348;2023-04-07T01:47:57;101489.63;;;11.64;32.33
7264;BME280;3673;52.480;13.348;2023-04-07T01:50:25;101486.06;;;11.53;32.58
7264;BME280;3673;52.480;13.348;2023-04-07T01:52:54;101484.34;;;11.57;32.42
7264;BME280;3673;52.480;13.348;2023-04-07T01:55:22;101479.88;;;11.45;32.38
7264;BME280;3673;52.480;13.348;2023-04-07T01:57:49;101487.75;;;11.48;32.74
7264;BME280;3673;52.480;13.348;2023-04-07T02:00:16;101478.16;;;11.47;32.59
7264;BME280;3673;52.480;13.348;2023-04-07T02:02:44;101479.88;;;11.44;32.85
7264;BME280;3673;52.480;13.348;2023-04-07T02:05:19;101484.16;;;11.32;33.08
7264;BME280;3673;52.480;13.348;2023-04-07T02:07:51;101473.75;;;11.45;32.96
7264;BME280;3673;52.480;13.348;2023-04-07T02:10:22;101483.31;;;11.38;33.08
7264;BME280;3673;52.480;13.348;2023-04-07T02:12:51;101480.66;;;11.30;33.33
7264;BME280;3673;52.480;13.348;2023-04-07T02:15:19;101482.34;;;11.25;33.56
7264;BME280;3673;52.480;13.348;2023-04-07T02:17:51;101478.84;;;11.20;33.58
7264;BME280;3673;52.480;13.348;2023-04-07T02:20:21;101471.78;;;11.13;33.62
7264;BME280;3673;52.480;13.348;2023-04-07T02:22:49;101465.72;;;11.19;33.23
7264;BME280;3673;52.480;13.348;2023-04-07T02:25:24;101457.91;;;11.28;33.49
7264;BME280;3673;52.480;13.348;2023-04-07T02:27:52;101469.28;;;11.27;33.24
7264;BME280;3673;52.480;13.348;2023-04-07T02:30:19;101468.38;;;11.25;33.12
7264;BME280;3673;52.480;13.348;2023-04-07T02:32:46;101471.88;;;11.25;33.50
7264;BME280;3673;52.480;13.348;2023-04-07T02:35:14;101465.81;;;11.29;33.43
7264;BME280;3673;52.480;13.348;2023-04-07T02:37:44;101468.31;;;11.19;33.31
7264;BME280;3673;52.480;13.348;2023-04-07T02:40:11;101462.16;;;11.12;33.80
7264;BME280;3673;52.480;13.348;2023-04-07T02:42:38;101464.75;;;11.11;33.40
7264;BME280;3673;52.480;13.348;2023-04-07T02:45:07;101464.72;;;11.06;33.94
7264;BME280;3673;52.480;13.348;2023-04-07T02:47:36;101453.41;;;11.07;33.62
7264;BME280;3673;52.480;13.348;2023-04-07T02:50:04;101459.53;;;11.12;33.64
7264;BME280;3673;52.480;13.348;2023-04-07T02:52:31;101460.53;;;11.23;33.67
7264;BME280;3673;52.480;13.348;2023-04-07T02:54:59;101466.50;;;11.07;33.92
7264;BME280;3673;52.480;13.348;2023-04-07T02:57:26;101467.38;;;11.11;33.89
7264;BME280;3673;52.480;13.348;2023-04-07T02:59:53;101461.28;;;11.10;33.91
7264;BME280;3673;52.480;13.348;2023-04-07T03:02:22;101457.81;;;11.13;33.82
7264;BME280;3673;52.480;13.348;2023-04-07T03:04:51;101460.38;;;11.07;34.27
7264;BME280;3673;52.480;13.348;2023-04-07T03:07:17;101461.28;;;11.12;34.21
7264;BME280;3673;52.480;13.348;2023-04-07T03:09:44;101470.97;;;11.20;34.19
7264;BME280;3673;52.480;13.348;2023-04-07T03:12:12;101457.78;;;11.11;33.87
7264;BME280;3673;52.480;13.348;2023-04-07T03:14:39;101457.84;;;11.17;33.65
7264;BME280;3673;52.480;13.348;2023-04-07T03:17:07;101458.66;;;11.12;34.16
7264;BME280;3673;52.480;13.348;2023-04-07T03:19:34;101449.09;;;11.15;34.19
7264;BME280;3673;52.480;13.348;2023-04-07T03:22:01;101457.78;;;11.11;34.16
7264;BME280;3673;52.480;13.348;2023-04-07T03:24:27;101449.94;;;11.11;34.25
7264;BME280;3673;52.480;13.348;2023-04-07T03:26:55;101436.94;;;11.25;33.86
7264;BME280;3673;52.480;13.348;2023-04-07T03:29:23;101442.19;;;11.26;34.31
7264;BME280;3673;52.480;13.348;2023-04-07T03:31:50;101448.31;;;11.28;33.90
7264;BME280;3673;52.480;13.348;2023-04-07T03:34:16;101447.44;;;11.28;34.11
7264;BME280;3673;52.480;13.348;2023-04-07T03:36:43;101445.63;;;11.16;34.59
7264;BME280;3673;52.480;13.348;2023-04-07T03:39:10;101436.97;;;11.28;34.23
7264;BME280;3673;52.480;13.348;2023-04-07T03:41:37;101434.38;;;11.29;34.50
7264;BME280;3673;52.480;13.348;2023-04-07T03:44:04;101441.38;;;11.32;34.21
7264;BME280;3673;52.480;13.348;2023-04-07T03:46:32;101437.00;;;11.29;34.37
7264;BME280;3673;52.480;13.348;2023-04-07T03:48:59;101437.84;;;11.27;34.40
7264;BME280;3673;52.480;13.348;2023-04-07T03:51:26;101435.94;;;11.11;34.81
7264;BME280;3673;52.480;13.348;2023-04-07T03:53:53;101439.53;;;11.20;34.25
7264;BME280;3673;52.480;13.348;2023-04-07T03:56:20;101437.69;;;11.09;34.76
7264;BME280;3673;52.480;13.348;2023-04-07T03:58:47;101430.75;;;11.15;34.63
7264;BME280;3673;52.480;13.348;2023-04-07T04:01:14;101445.44;;;10.94;34.66
7264;BME280;3673;52.480;13.348;2023-04-07T04:03:43;101442.09;;;11.13;34.33
7264;BME280;3673;52.480;13.348;2023-04-07T04:06:09;101426.34;;;11.07;34.70
7264;BME280;3673;52.480;13.348;2023-04-07T04:08:36;101435.91;;;11.05;34.51
7264;BME280;3673;52.480;13.348;2023-04-07T04:11:03;101445.44;;;10.94;34.70
7264;BME280;3673;52.480;13.348;2023-04-07T04:13:30;101437.63;;;11.04;34.83
7264;BME280;3673;52.480;13.348;2023-04-07T04:15:57;101435.00;;;11.00;34.87
7264;BME280;3673;52.480;13.348;2023-04-07T04:18:24;101445.56;;;11.12;34.67
7264;BME280;3673;52.480;13.348;2023-04-07T04:20:52;101444.66;;;11.07;34.62
7264;BME280;3673;52.480;13.348;2023-04-07T04:23:19;101442.94;;;11.09;34.72
7264;BME280;3673;52.480;13.348;2023-04-07T04:25:46;101442.03;;;11.08;34.92
7264;BME280;3673;52.480;13.348;2023-04-07T04:28:13;101448.91;;;10.93;35.13
7264;BME280;3673;52.480;13.348;2023-04-07T04:30:40;101450.69;;;10.97;34.95
7264;BME280;3673;52.480;13.348;2023-04-07T04:33:07;101437.41;;;10.75;35.39
7264;BME280;3673;52.480;13.348;2023-04-07T04:35:33;101440.19;;;10.94;35.64
7264;BME280;3673;52.480;13.348;2023-04-07T04:38:01;101444.66;;;11.04;35.26
7264;BME280;3673;52.480;13.348;2023-04-07T04:40:28;101444.66;;;11.04;35.13
7264;BME280;3673;52.480;13.348;2023-04-07T04:42:55;101443.72;;;10.99;35.44
7264;BME280;3673;52.480;13.348;2023-04-07T04:45:22;101448.09;;;11.01;35.30
7264;BME280;3673;52.480;13.348;2023-04-07T04:47:49;101453.34;;;11.04;35.17
7264;BME280;3673;52.480;13.348;2023-04-07T04:50:16;101447.97;;;10.86;35.45
7264;BME280;3673;52.480;13.348;2023-04-07T04:52:43;101454.84;;;10.73;35.42
7264;BME280;3673;52.480;13.348;2023-04-07T04:55:11;101450.66;;;10.94;35.34
7264;BME280;3673;52.480;13.348;2023-04-07T04:57:38;101451.44;;;10.85;35.34
7264;BME280;3673;52.480;13.348;2023-04-07T05:00:06;101451.59;;;11.00;35.29
7264;BME280;3673;52.480;13.348;2023-04-07T05:02:33;101445.47;;;10.97;35.04
7264;BME280;3673;52.480;13.348;2023-04-07T05:05:00;101454.91;;;10.82;35.53
7264;BME280;3673;52.480;13.348;2023-04-07T05:07:28;101443.50;;;10.76;35.14
7264;BME280;3673;52.480;13.348;2023-04-07T05:09:55;101444.22;;;10.61;35.64
7264;BME280;3673;52.480;13.348;2023-04-07T05:12:23;101439.84;;;10.59;36.05
7264;BME280;3673;52.480;13.348;2023-04-07T05:14:50;101462.78;;;10.82;35.89
7264;BME280;3673;52.480;13.348;2023-04-07T05:17:16;101461.94;;;10.87;35.89
7264;BME280;3673;52.480;13.348;2023-04-07T05:19:43;101447.16;;;10.93;35.88
7264;BME280;3673;52.480;13.348;2023-04-07T05:22:10;101460.38;;;11.07;35.99
7264;BME280;3673;52.480;13.348;2023-04-07T05:24:37;101453.41;;;11.12;36.36
7264;BME280;3673;52.480;13.348;2023-04-07T05:27:03;101452.50;;;11.04;37.01
7264;BME280;3673;52.480;13.348;2023-04-07T05:29:32;101453.44;;;11.10;36.51
7264;BME280;3673;52.480;13.348;2023-04-07T05:31:58;101453.31;;;10.97;37.04
7264;BME280;3673;52.480;13.348;2023-04-07T05:34:26;101454.00;;;10.79;37.28
7264;BME280;3673;52.480;13.348;2023-04-07T05:36:52;101465.31;;;10.75;36.82
7264;BME280;3673;52.480;13.348;2023-04-07T05:39:22;101460.06;;;10.73;37.27
7264;BME280;3673;52.480;13.348;2023-04-07T05:41:50;101462.59;;;10.66;36.62
7264;BME280;3673;52.480;13.348;2023-04-07T05:44:17;101451.19;;;10.61;37.34
7264;BME280;3673;52.480;13.348;2023-04-07T05:46:45;101453.78;;;10.58;37.38
7264;BME280;3673;52.480;13.348;2023-04-07T05:49:13;101451.16;;;10.56;37.55
7264;BME280;3673;52.480;13.348;2023-04-07T05:51:40;101459.03;;;10.59;37.20
7264;BME280;3673;52.480;13.348;2023-04-07T05:54:06;101449.31;;;10.48;37.44
7264;BME280;3673;52.480;13.348;2023-04-07T05:56:33;101452.84;;;10.51;37.93
7264;BME280;3673;52.480;13.348;2023-04-07T05:59:00;101450.44;;;10.69;37.63
7264;BME280;3673;52.480;13.348;2023-04-07T06:01:28;101450.53;;;10.80;37.14
7264;BME280;3673;52.480;13.348;2023-04-07T06:03:56;101450.66;;;10.94;37.50
7264;BME280;3673;52.480;13.348;2023-04-07T06:06:24;101451.63;;;11.08;39.29
7264;BME280;3673;52.480;13.348;2023-04-07T06:08:52;101453.44;;;11.13;36.97
7264;BME280;3673;52.480;13.348;2023-04-07T06:11:19;101453.44;;;11.10;36.72
7264;BME280;3673;52.480;13.348;2023-04-07T06:13:46;101470.75;;;10.98;37.55
7264;BME280;3673;52.480;13.348;2023-04-07T06:16:13;101457.44;;;10.70;37.44
7264;BME280;3673;52.480;13.348;2023-04-07T06:18:40;101461.91;;;10.85;37.30
7264;BME280;3673;52.480;13.348;2023-04-07T06:21:08;101466.94;;;10.65;37.39
7264;BME280;3673;52.480;13.348;2023-04-07T06:23:35;101468.97;;;10.91;37.50
7264;BME280;3673;52.480;13.348;2023-04-07T06:26:02;101469.94;;;11.03;37.02
7264;BME280;3673;52.480;13.348;2023-04-07T06:28:29;101473.34;;;10.95;37.42
7264;BME280;3673;52.480;13.348;2023-04-07T06:30:55;101476.13;;;11.13;37.45
7264;BME280;3673;52.480;13.348;2023-04-07T06:33:22;101477.66;;;10.90;37.60
7264;BME280;3673;52.480;13.348;2023-04-07T06:35:50;101469.75;;;10.83;37.45
7264;BME280;3673;52.480;13.348;2023-04-07T06:38:18;101472.56;;;11.03;38.05
7264;BME280;3673;52.480;13.348;2023-04-07T06:40:45;101475.06;;;10.91;37.83
7264;BME280;3673;52.480;13.348;2023-04-07T06:43:12;101479.28;;;10.78;37.84
7264;BME280;3673;52.480;13.348;2023-04-07T06:45:39;101472.22;;;10.68;38.25
7264;BME280;3673;52.480;13.348;2023-04-07T06:48:06;101474.06;;;10.77;37.98
7264;BME280;3673;52.480;13.348;2023-04-07T06:50:35;101479.28;;;10.78;38.03
7264;BME280;3673;52.480;13.348;2023-04-07T06:53:02;101467.94;;;10.76;38.01
7264;BME280;3673;52.480;13.348;2023-04-07T06:55:30;101465.31;;;10.73;38.11
7264;BME280;3673;52.480;13.348;2023-04-07T06:57:57;101484.41;;;10.66;38.75
7264;BME280;3673;52.480;13.348;2023-04-07T07:00:24;101484.34;;;10.60;38.63
7264;BME280;3673;52.480;13.348;2023-04-07T07:02:51;101478.31;;;10.66;38.75
7264;BME280;3673;52.480;13.348;2023-04-07T07:05:18;101474.28;;;11.00;38.04
7264;BME280;3673;52.480;13.348;2023-04-07T07:07:45;101485.03;;;10.43;38.76
7264;BME280;3673;52.480;13.348;2023-04-07T07:10:11;101487.13;;;10.74;39.31
7264;BME280;3673;52.480;13.348;2023-04-07T07:12:39;101484.66;;;10.89;38.78
7264;BME280;3673;52.480;13.348;2023-04-07T07:15:07;101485.69;;;11.08;38.20
7264;BME280;3673;52.480;13.348;2023-04-07T07:17:34;101487.53;;;11.21;37.74
7264;BME280;3673;52.480;13.348;2023-04-07T07:20:01;101484.00;;;11.14;37.96
7264;BME280;3673;52.480;13.348;2023-04-07T07:22:28;101479.69;;;11.21;37.97
7264;BME280;3673;52.480;13.348;2023-04-07T07:24:55;101486.78;;;11.32;37.79
7264;BME280;3673;52.480;13.348;2023-04-07T07:27:22;101474.50;;;11.24;37.93
7264;BME280;3673;52.480;13.348;2023-04-07T07:29:50;101491.19;;;11.36;37.84
7264;BME280;3673;52.480;13.348;2023-04-07T07:32:17;101495.41;;;11.22;38.77
7264;BME280;3673;52.480;13.348;2023-04-07T07:34:44;101492.00;;;11.32;37.94
7264;BME280;3673;52.480;13.348;2023-04-07T07:37:10;101493.03;;;11.50;38.28
7264;BME280;3673;52.480;13.348;2023-04-07T07:39:37;101495.81;;;11.71;37.73
7264;BME280;3673;52.480;13.348;2023-04-07T07:42:04;101491.19;;;11.36;37.61
7264;BME280;3673;52.480;13.348;2023-04-07T07:44:31;101503.47;;;11.48;37.69
7264;BME280;3673;52.480;13.348;2023-04-07T07:46:59;101507.16;;;11.70;37.20
7264;BME280;3673;52.480;13.348;2023-04-07T07:49:26;101494.84;;;11.64;36.35
7264;BME280;3673;52.480;13.348;2023-04-07T07:51:52;101499.28;;;11.70;36.73
7264;BME280;3673;52.480;13.348;2023-04-07T07:54:19;101500.16;;;11.67;36.20
7264;BME280;3673;52.480;13.348;2023-04-07T07:56:46;101503.72;;;11.78;36.00
7264;BME280;3673;52.480;13.348;2023-04-07T07:59:13;101509.94;;;11.93;35.44
7264;BME280;3673;52.480;13.348;2023-04-07T08:01:40;101502.16;;;12.08;35.60
7264;BME280;3673;52.480;13.348;2023-04-07T08:04:08;101501.31;;;12.18;34.63
7264;BME280;3673;52.480;13.348;2023-04-07T08:06:35;101505.59;;;11.93;33.18
7264;BME280;3673;52.480;13.348;2023-04-07T08:09:02;101507.44;;;12.11;32.67
7264;BME280;3673;52.480;13.348;2023-04-07T08:11:30;101495.25;;;12.25;32.69
7264;BME280;3673;52.480;13.348;2023-04-07T08:13:57;101501.38;;;12.28;32.15
7264;BME280;3673;52.480;13.348;2023-04-07T08:16:24;101501.38;;;12.25;31.56
7264;BME280;3673;52.480;13.348;2023-04-07T08:18:51;101506.72;;;12.50;30.77
7264;BME280;3673;52.480;13.348;2023-04-07T08:21:19;101514.59;;;12.56;30.70
7264;BME280;3673;52.480;13.348;2023-04-07T08:23:46;101490.97;;;12.44;30.16
7264;BME280;3673;52.480;13.348;2023-04-07T08:26:13;101501.47;;;12.51;30.19
7264;BME280;3673;52.480;13.348;2023-04-07T08:28:39;101497.97;;;12.58;29.33
7264;BME280;3673;52.480;13.348;2023-04-07T08:31:06;101497.19;;;12.77;28.97
7264;BME280;3673;52.480;13.348;2023-04-07T08:33:33;101502.38;;;12.65;29.09
7264;BME280;3673;52.480;13.348;2023-04-07T08:36:00;101500.72;;;13.05;28.89
7264;BME280;3673;52.480;13.348;2023-04-07T08:38:28;101505.16;;;13.30;28.56
7264;BME280;3673;52.480;13.348;2023-04-07T08:41:02;101501.63;;;13.63;28.12
7264;BME280;3673;52.480;13.348;2023-04-07T08:43:30;101513.03;;;13.36;27.92
7264;BME280;3673;52.480;13.348;2023-04-07T08:45:59;101497.22;;;13.06;28.05
7264;BME280;3673;52.480;13.348;2023-04-07T08:48:29;101502.50;;;13.09;28.59
7264;BME280;3673;52.480;13.348;2023-04-07T08:51:01;101500.72;;;13.05;28.47
7264;BME280;3673;52.480;13.348;2023-04-07T08:53:37;101509.50;;;13.18;28.52
7264;BME280;3673;52.480;13.348;2023-04-07T08:56:06;101520.91;;;13.18;27.82
7264;BME280;3673;52.480;13.348;2023-04-07T08:58:35;101508.59;;;12.96;28.34
7264;BME280;3673;52.480;13.348;2023-04-07T09:01:03;101514.66;;;12.71;28.39
7264;BME280;3673;52.480;13.348;2023-04-07T09:03:30;101507.72;;;12.96;28.57
7264;BME280;3673;52.480;13.348;2023-04-07T09:05:59;101522.56;;;12.86;29.00
7264;BME280;3673;52.480;13.348;2023-04-07T09:08:26;101522.56;;;12.80;28.75
7264;BME280;3673;52.480;13.348;2023-04-07T09:10:56;101523.41;;;12.67;29.22
7264;BME280;3673;52.480;13.348;2023-04-07T09:13:23;101533.03;;;12.66;29.12
7264;BME280;3673;52.480;13.348;2023-04-07T09:15:50;101531.28;;;12.61;28.71
7264;BME280;3673;52.480;13.348;2023-04-07T09:18:17;101531.13;;;12.32;28.92
7264;BME280;3673;52.480;13.348;2023-04-07T09:20:56;101521.56;;;12.43;28.60
7264;BME280;3673;52.480;13.348;2023-04-07T09:23:31;101518.16;;;12.64;28.39
7264;BME280;3673;52.480;13.348;2023-04-07T09:26:18;101521.69;;;12.85;28.62
7264;BME280;3673;52.480;13.348;2023-04-07T09:28:46;101525.00;;;12.24;29.06
7264;BME280;3673;52.480;13.348;2023-04-07T09:31:15;101528.47;;;12.24;27.87
7264;BME280;3673;52.480;13.348;2023-04-07T09:33:42;101523.28;;;12.30;26.98
7264;BME280;3673;52.480;13.348;2023-04-07T09:36:09;101526.78;;;12.38;25.71
7264;BME280;3673;52.480;13.348;2023-04-07T09:38:38;101534.75;;;12.57;25.21
7264;BME280;3673;52.480;13.348;2023-04-07T09:41:08;101529.41;;;12.38;26.43
7264;BME280;3673;52.480;13.348;2023-04-07T09:43:37;101532.09;;;12.58;26.34
7264;BME280;3673;52.480;13.348;2023-04-07T09:46:09;101531.97;;;12.25;26.44
7264;BME280;3673;52.480;13.348;2023-04-07T09:48:37;101534.72;;;12.49;26.36
7264;BME280;3673;52.480;13.348;2023-04-07T09:51:06;101537.34;;;12.49;27.24
7264;BME280;3673;52.480;13.348;2023-04-07T09:53:42;101536.38;;;12.27;27.84
7264;BME280;3673;52.480;13.348;2023-04-07T09:56:10;101540.88;;;12.57;27.85
7264;BME280;3673;52.480;13.348;2023-04-07T09:58:39;101547.75;;;12.35;27.97
7264;BME280;3673;52.480;13.348;2023-04-07T10:01:07;101543.50;;;12.54;27.90
7264;BME280;3673;52.480;13.348;2023-04-07T10:03:35;101540.66;;;12.12;28.24
7264;BME280;3673;52.480;13.348;2023-04-07T10:06:03;101539.75;;;12.11;28.62
7264;BME280;3673;52.480;13.348;2023-04-07T10:08:33;101539.94;;;12.40;28.72
7264;BME280;3673;52.480;13.348;2023-04-07T10:11:01;101524.19;;;12.43;28.69
7264;BME280;3673;52.480;13.348;2023-04-07T10:13:34;101539.94;;;12.45;27.68
7264;BME280;3673;52.480;13.348;2023-04-07T10:16:04;101532.84;;;12.22;28.23
7264;BME280;3673;52.480;13.348;2023-04-07T10:18:33;101538.03;;;12.12;28.14
7264;BME280;3673;52.480;13.348;2023-04-07T10:21:02;101532.84;;;12.25;28.42
7264;BME280;3673;52.480;13.348;2023-04-07T10:23:57;101545.13;;;12.32;28.94
7264;BME280;3673;52.480;13.348;2023-04-07T10:26:33;101526.78;;;12.37;28.70
7264;BME280;3673;52.480;13.348;2023-04-07T10:29:22;101540.75;;;12.34;29.15
7264;BME280;3673;52.480;13.348;2023-04-07T10:31:52;101539.03;;;12.39;29.68
7264;BME280;3673;52.480;13.348;2023-04-07T10:34:55;101534.72;;;12.55;29.68
7264;BME280;3673;52.480;13.348;2023-04-07T10:37:24;101538.13;;;12.30;29.67
7264;BME280;3673;52.480;13.348;2023-04-07T10:40:27;101539.03;;;12.39;29.81
7264;BME280;3673;52.480;13.348;2023-04-07T10:42:54;101532.00;;;12.29;30.14
7264;BME280;3673;52.480;13.348;2023-04-07T10:45:54;101527.69;;;12.42;30.89
7264;BME280;3673;52.480;13.348;2023-04-07T10:48:24;101540.75;;;12.37;30.51
7264;BME280;3673;52.480;13.348;2023-04-07T10:51:14;101537.34;;;12.52;30.63
7264;BME280;3673;52.480;13.348;2023-04-07T10:54:22;101533.03;;;12.63;31.78
7264;BME280;3673;52.480;13.348;2023-04-07T10:57:07;101537.41;;;12.72;31.08
7264;BME280;3673;52.480;13.348;2023-04-07T11:02:34;101528.66;;;12.70;31.31
7264;BME280;3673;52.480;13.348;2023-04-07T11:05:01;101526.00;;;12.59;31.77
7264;BME280;3673;52.480;13.348;2023-04-07T11:07:51;101538.25;;;12.62;33.27
7264;BME280;3673;52.480;13.348;2023-04-07T11:10:20;101533.03;;;12.66;35.55
7264;BME280;3673;52.480;13.348;2023-04-07T11:13:05;101531.25;;;12.65;37.92
7264;BME280;3673;52.480;13.348;2023-04-07T11:15:34;101529.47;;;12.52;39.18
7264;BME280;3673;52.480;13.348;2023-04-07T11:18:15;101531.13;;;12.35;39.25
7264;BME280;3673;52.480;13.348;2023-04-07T11:20:45;101529.38;;;12.29;41.01
7264;BME280;3673;52.480;13.348;2023-04-07T11:23:13;101532.88;;;12.24;42.68
7264;BME280;3673;52.480;13.348;2023-04-07T11:25:42;101534.69;;;12.43;43.18
7264;BME280;3673;52.480;13.348;2023-04-07T11:28:11;101531.88;;;12.05;42.16
7264;BME280;3673;52.480;13.348;2023-04-07T11:30:45;101526.78;;;12.38;43.50
7264;BME280;3673;52.480;13.348;2023-04-07T11:33:25;101527.50;;;12.03;43.71
7264;BME280;3673;52.480;13.348;2023-04-07T11:35:55;101536.09;;;11.80;44.20
7264;BME280;3673;52.480;13.348;2023-04-07T11:38:24;101514.25;;;11.84;45.04
7264;BME280;3673;52.480;13.348;2023-04-07T11:40:53;101530.97;;;11.97;45.00
7264;BME280;3673;52.480;13.348;2023-04-07T11:43:22;101526.41;;;11.72;44.96
7264;BME280;3673;52.480;13.348;2023-04-07T11:46:07;101524.91;;;12.10;44.67
7264;BME280;3673;52.480;13.348;2023-04-07T11:48:37;101523.13;;;12.06;45.80
7264;BME280;3673;52.480;13.348;2023-04-07T11:51:05;101525.72;;;12.00;45.32
7264;BME280;3673;52.480;13.348;2023-04-07T11:53:35;101523.19;;;12.11;46.92
7264;BME280;3673;52.480;13.348;2023-04-07T11:56:06;101525.56;;;11.76;47.62
7264;BME280;3673;52.480;13.348;2023-04-07T11:58:34;101520.22;;;11.68;47.99
7264;BME280;3673;52.480;13.348;2023-04-07T12:01:04;101523.09;;;11.94;48.15
7264;BME280;3673;52.480;13.348;2023-04-07T12:03:36;101519.72;;;12.19;47.50
7264;BME280;3673;52.480;13.348;2023-04-07T12:06:03;101519.66;;;12.15;47.31
7264;BME280;3673;52.480;13.348;2023-04-07T12:08:38;101530.25;;;12.34;48.38
7264;BME280;3673;52.480;13.348;2023-04-07T12:11:06;101513.59;;;12.25;49.24
7264;BME280;3673;52.480;13.348;2023-04-07T12:13:34;101532.63;;;11.87;49.82
7264;BME280;3673;52.480;13.348;2023-04-07T12:16:01;101530.09;;;12.01;49.91
7264;BME280;3673;52.480;13.348;2023-04-07T12:18:28;101526.72;;;12.28;50.36
7264;BME280;3673;52.480;13.348;2023-04-07T12:20:56;101526.56;;;11.93;51.06
7264;BME280;3673;52.480;13.348;2023-04-07T12:23:23;101529.34;;;12.22;51.04
7264;BME280;3673;52.480;13.348;2023-04-07T12:25:50;101530.19;;;12.21;51.75
7264;BME280;3673;52.480;13.348;2023-04-07T12:28:17;101534.56;;;12.19;50.68
7264;BME280;3673;52.480;13.348;2023-04-07T12:30:44;101527.34;;;11.81;50.86
7264;BME280;3673;52.480;13.348;2023-04-07T12:33:11;101526.50;;;11.82;51.55
7264;BME280;3673;52.480;13.348;2023-04-07T12:35:38;101524.78;;;11.89;51.29
7264;BME280;3673;52.480;13.348;2023-04-07T12:38:06;101536.19;;;11.96;52.03
7264;BME280;3673;52.480;13.348;2023-04-07T12:40:33;101530.06;;;11.98;52.34
7264;BME280;3673;52.480;13.348;2023-04-07T12:43:01;101515.16;;;11.83;52.02
7264;BME280;3673;52.480;13.348;2023-04-07T12:45:28;101535.22;;;11.80;52.98
7264;BME280;3673;52.480;13.348;2023-04-07T12:47:56;101509.88;;;11.82;52.89
7264;BME280;3673;52.480;13.348;2023-04-07T12:50:23;101531.88;;;12.07;52.85
7264;BME280;3673;52.480;13.348;2023-04-07T12:52:51;101530.19;;;12.16;54.38
7264;BME280;3673;52.480;13.348;2023-04-07T12:55:20;101534.41;;;11.92;52.30
7264;BME280;3673;52.480;13.348;2023-04-07T12:57:48;101530.06;;;11.94;52.13
7264;BME280;3673;52.480;13.348;2023-04-07T13:00:15;101531.00;;;12.08;52.41
7264;BME280;3673;52.480;13.348;2023-04-07T13:02:42;101525.78;;;12.09;51.57
7264;BME280;3673;52.480;13.348;2023-04-07T13:05:09;101524.00;;;12.08;52.16
7264;BME280;3673;52.480;13.348;2023-04-07T13:07:37;101529.19;;;11.96;52.30
7264;BME280;3673;52.480;13.348;2023-04-07T13:10:05;101522.09;;;11.81;52.74
7264;BME280;3673;52.480;13.348;2023-04-07T13:12:38;101509.88;;;11.77;52.67